createdAt,value
2018-07-04T00:00:27.161Z,15.02
2018-07-04T00:03:06.765Z,15.07
2018-07-04T00:05:46.476Z,14.93
2018-07-04T00:08:25.988Z,14.77
2018-07-04T00:11:05.498Z,14.89
2018-07-04T00:13:44.936Z,15.01
2018-07-04T00:16:24.508Z,14.67
2018-07-04T00:19:03.917Z,14.70
2018-07-04T00:21:43.569Z,14.76
2018-07-04T00:24:22.903Z,14.77
2018-07-04T00:27:02.322Z,14.76
2018-07-04T00:29:42.253Z,14.64
2018-07-04T00:32:21.778Z,14.66
2018-07-04T00:35:01.287Z,14.79
2018-07-04T00:37:40.781Z,14.80
2018-07-04T00:40:22.157Z,14.77
2018-07-04T00:43:01.521Z,14.87
2018-07-04T00:45:41.228Z,14.94
2018-07-04T00:48:20.761Z,14.87
2018-07-04T00:51:00.514Z,14.76
2018-07-04T00:53:40.089Z,14.77
2018-07-04T00:56:20.021Z,14.79
2018-07-04T00:58:59.651Z,14.88
2018-07-04T01:01:39.045Z,14.82
2018-07-04T01:04:18.770Z,14.79
2018-07-04T01:06:58.373Z,14.76
2018-07-04T01:09:37.929Z,14.79
2018-07-04T01:12:17.645Z,14.86
2018-07-04T01:14:57.249Z,14.88
2018-07-04T01:17:37.097Z,14.85
2018-07-04T01:20:16.621Z,14.72
2018-07-04T01:22:56.179Z,14.72
2018-07-04T01:25:35.882Z,14.63
2018-07-04T01:28:15.495Z,14.58
2018-07-04T01:30:56.205Z,14.52
2018-07-04T01:33:36.038Z,14.52
2018-07-04T01:36:15.700Z,14.65
2018-07-04T01:38:55.209Z,14.66
2018-07-04T01:41:34.757Z,14.55
2018-07-04T01:44:14.356Z,14.62
2018-07-04T01:46:53.867Z,14.62
2018-07-04T01:49:33.441Z,14.66
2018-07-04T01:52:13.037Z,14.60
2018-07-04T01:54:52.442Z,14.43
2018-07-04T01:57:31.906Z,14.29
2018-07-04T02:00:12.312Z,14.37
2018-07-04T02:02:51.838Z,14.50
2018-07-04T02:05:31.525Z,14.60
2018-07-04T02:08:10.901Z,14.40
2018-07-04T02:10:50.459Z,14.35
2018-07-04T02:13:30.021Z,14.18
2018-07-04T02:16:09.522Z,14.17
2018-07-04T02:18:49.048Z,14.06
2018-07-04T02:21:28.667Z,14.12
2018-07-04T02:24:08.356Z,14.10
2018-07-04T02:26:47.949Z,14.13
2018-07-04T02:29:27.620Z,14.18
2018-07-04T02:32:07.425Z,14.02
2018-07-04T02:34:46.961Z,14.00
2018-07-04T02:37:26.663Z,14.01
2018-07-04T02:40:07.665Z,13.97
2018-07-04T02:42:47.314Z,13.91
2018-07-04T02:45:27.300Z,14.08
2018-07-04T02:48:06.887Z,14.02
2018-07-04T02:50:46.520Z,14.12
2018-07-04T02:53:26.124Z,14.13
2018-07-04T02:56:05.691Z,14.06
2018-07-04T02:58:45.192Z,14.05
2018-07-04T03:01:24.773Z,14.07
2018-07-04T03:04:04.331Z,14.02
2018-07-04T03:06:43.974Z,14.01
2018-07-04T03:09:23.579Z,13.87
2018-07-04T03:12:03.334Z,14.12
2018-07-04T03:14:42.990Z,14.12
2018-07-04T03:17:22.534Z,14.12
2018-07-04T03:20:01.989Z,14.18
2018-07-04T03:22:41.685Z,14.21
2018-07-04T03:25:21.383Z,14.16
2018-07-04T03:28:01.469Z,14.09
2018-07-04T03:30:41.064Z,13.94
2018-07-04T03:33:20.622Z,13.86
2018-07-04T03:36:00.297Z,13.67
2018-07-04T03:38:39.997Z,13.86
2018-07-04T03:41:19.660Z,13.93
2018-07-04T03:43:59.166Z,14.00
2018-07-04T03:46:38.668Z,14.18
2018-07-04T03:49:18.474Z,14.12
2018-07-04T03:51:58.078Z,14.24
2018-07-04T03:54:37.721Z,14.39
2018-07-04T03:57:17.301Z,14.36
2018-07-04T03:59:56.964Z,14.27
2018-07-04T04:02:36.946Z,14.28
2018-07-04T04:05:17.417Z,14.28
2018-07-04T04:07:57.029Z,14.38
2018-07-04T04:10:36.629Z,14.23
2018-07-04T04:13:16.213Z,14.27
2018-07-04T04:15:55.825Z,14.38
2018-07-04T04:18:35.344Z,14.41
2018-07-04T04:21:14.805Z,14.36
2018-07-04T04:23:54.349Z,14.43
2018-07-04T04:26:33.741Z,14.52
2018-07-04T04:29:13.241Z,14.64
2018-07-04T04:31:52.685Z,14.88
2018-07-04T04:34:32.168Z,14.85
2018-07-04T04:37:12.828Z,14.94
2018-07-04T04:39:52.513Z,15.10
2018-07-04T04:42:32.138Z,15.25
2018-07-04T04:45:11.780Z,15.50
2018-07-04T04:47:51.343Z,15.63
2018-07-04T04:50:31.008Z,15.84
2018-07-04T04:53:10.637Z,15.93
2018-07-04T04:55:50.121Z,15.97
2018-07-04T04:58:29.773Z,16.44
2018-07-04T05:01:09.277Z,16.41
2018-07-04T05:03:48.773Z,16.52
2018-07-04T05:06:28.323Z,16.85
2018-07-04T05:09:07.866Z,16.66
2018-07-04T05:11:47.355Z,16.91
2018-07-04T05:14:26.881Z,17.07
2018-07-04T05:17:06.398Z,16.63
2018-07-04T05:19:45.984Z,16.88
2018-07-04T05:22:25.363Z,17.19
2018-07-04T05:25:05.014Z,17.74
2018-07-04T05:27:44.721Z,18.26
2018-07-04T05:30:24.412Z,18.20
2018-07-04T05:33:04.069Z,17.19
2018-07-04T05:35:43.609Z,16.95
2018-07-04T05:38:23.285Z,17.52
2018-07-04T05:41:02.860Z,17.74
2018-07-04T05:43:42.389Z,17.45
2018-07-04T05:46:21.817Z,17.77
2018-07-04T05:49:01.426Z,17.71
2018-07-04T05:51:40.932Z,17.69
2018-07-04T05:54:20.458Z,18.21
2018-07-04T05:56:59.827Z,18.19
2018-07-04T05:59:39.394Z,18.02
2018-07-04T06:02:18.960Z,18.30
2018-07-04T06:04:58.669Z,18.39
2018-07-04T06:07:38.173Z,18.93
2018-07-04T06:10:17.833Z,18.76
2018-07-04T06:12:57.256Z,19.15
2018-07-04T06:15:36.796Z,19.65
2018-07-04T06:18:16.341Z,19.90
2018-07-04T06:20:55.986Z,19.89
2018-07-04T06:23:35.610Z,19.80
2018-07-04T06:26:15.198Z,20.06
2018-07-04T06:28:54.735Z,20.23
2018-07-04T06:31:34.245Z,20.06
2018-07-04T06:34:14.853Z,20.08
2018-07-04T06:36:54.505Z,19.52
2018-07-04T06:39:22.149Z,19.67
2018-07-04T06:41:49.313Z,19.70
2018-07-04T06:44:16.460Z,19.59
2018-07-04T06:46:43.621Z,19.49
2018-07-04T06:49:10.793Z,19.40
2018-07-04T06:51:37.974Z,19.22
2018-07-04T06:54:05.130Z,18.73
2018-07-04T06:56:32.269Z,19.29
2018-07-04T06:58:59.451Z,18.71
2018-07-04T07:01:26.601Z,18.91
2018-07-04T07:04:06.282Z,19.25
2018-07-04T07:06:45.868Z,19.80
2018-07-04T07:09:26.873Z,19.40
2018-07-04T07:12:06.366Z,19.46
2018-07-04T07:14:45.856Z,19.10
2018-07-04T07:17:25.473Z,18.71
2018-07-04T07:20:05.001Z,19.40
2018-07-04T07:22:44.475Z,20.05
2018-07-04T07:25:23.936Z,19.41
2018-07-04T07:28:03.425Z,19.15
2018-07-04T07:30:43.137Z,18.85
2018-07-04T07:33:22.752Z,19.24
2018-07-04T07:36:02.223Z,18.89
2018-07-04T07:38:41.881Z,19.13
2018-07-04T07:41:21.557Z,19.28
2018-07-04T07:44:01.265Z,19.36
2018-07-04T07:46:40.961Z,19.01
2018-07-04T07:49:20.653Z,18.43
2018-07-04T07:52:00.401Z,18.45
2018-07-04T07:54:40.013Z,18.91
2018-07-04T07:57:19.645Z,18.84
2018-07-04T07:59:59.376Z,18.50
2018-07-04T08:02:38.869Z,18.87
2018-07-04T08:05:18.611Z,19.10
2018-07-04T08:07:58.161Z,18.95
2018-07-04T08:10:37.854Z,19.14
2018-07-04T08:13:17.462Z,19.17
2018-07-04T08:15:56.952Z,18.94
2018-07-04T08:18:36.553Z,19.19
2018-07-04T08:21:16.145Z,18.87
2018-07-04T08:23:55.940Z,19.49
2018-07-04T08:26:35.553Z,19.39
2018-07-04T08:29:15.105Z,19.43
2018-07-04T08:31:54.644Z,19.64
2018-07-04T08:34:34.327Z,19.55
2018-07-04T08:37:13.933Z,19.60
2018-07-04T08:39:53.585Z,19.96
2018-07-04T08:42:33.207Z,19.95
2018-07-04T08:45:12.857Z,19.74
2018-07-04T08:47:52.442Z,20.33
2018-07-04T08:50:33.019Z,19.90
2018-07-04T08:53:12.633Z,19.87
2018-07-04T08:55:52.274Z,19.66
2018-07-04T08:58:31.912Z,20.02
2018-07-04T09:01:11.565Z,19.81
2018-07-04T09:03:51.249Z,19.66
2018-07-04T09:06:30.981Z,19.89
2018-07-04T09:09:10.943Z,20.61
2018-07-04T09:11:50.491Z,20.89
2018-07-04T09:14:29.797Z,20.35
2018-07-04T09:17:09.254Z,20.19
2018-07-04T09:19:49.012Z,20.27
2018-07-04T09:22:28.479Z,19.92
2018-07-04T09:25:08.089Z,19.05
2018-07-04T09:27:47.551Z,19.91
2018-07-04T09:30:27.268Z,20.41
2018-07-04T09:33:06.857Z,20.49
2018-07-04T09:35:46.574Z,20.94
2018-07-04T09:38:26.090Z,20.59
2018-07-04T09:41:05.638Z,20.58
2018-07-04T09:43:45.656Z,20.72
2018-07-04T09:46:25.163Z,20.34
2018-07-04T09:49:04.782Z,20.45
2018-07-04T09:51:44.421Z,20.25
2018-07-04T09:54:24.065Z,20.49
2018-07-04T09:57:03.682Z,20.42
2018-07-04T09:59:43.349Z,20.55
2018-07-04T10:02:22.928Z,20.24
2018-07-04T10:05:04.457Z,20.65
2018-07-04T10:07:43.933Z,20.27
2018-07-04T10:10:23.791Z,19.91
2018-07-04T10:13:03.441Z,20.43
2018-07-04T10:15:43.036Z,20.35
2018-07-04T10:18:22.571Z,21.71
2018-07-04T10:21:01.875Z,21.94
2018-07-04T10:23:41.444Z,21.96
2018-07-04T10:26:21.033Z,21.32
2018-07-04T10:29:00.629Z,22.05
2018-07-04T10:31:42.257Z,21.94
2018-07-04T10:34:21.762Z,21.95
2018-07-04T10:37:01.314Z,22.92
2018-07-04T10:39:40.910Z,23.03
2018-07-04T10:42:20.537Z,22.58
2018-07-04T10:45:00.213Z,22.21
2018-07-04T10:47:39.882Z,23.20
2018-07-04T10:50:19.268Z,23.58
2018-07-04T10:52:58.601Z,23.04
2018-07-04T10:55:39.201Z,23.50
2018-07-04T10:58:19.651Z,23.05
2018-07-04T11:00:59.104Z,22.57
2018-07-04T11:03:38.654Z,21.87
2018-07-04T11:06:18.141Z,22.08
2018-07-04T11:08:57.622Z,22.91
2018-07-04T11:11:37.077Z,22.07
2018-07-04T11:14:16.661Z,22.25
2018-07-04T11:16:56.171Z,22.92
2018-07-04T11:19:35.765Z,22.81
2018-07-04T11:22:16.289Z,24.02
2018-07-04T11:24:55.609Z,24.10
2018-07-04T11:27:36.033Z,24.75
2018-07-04T11:30:15.581Z,24.42
2018-07-04T11:32:54.993Z,24.60
2018-07-04T11:35:34.538Z,24.74
2018-07-04T11:38:14.168Z,23.55
2018-07-04T11:40:53.657Z,23.12
2018-07-04T11:43:33.349Z,24.00
2018-07-04T11:46:00.946Z,23.38
2018-07-04T11:48:28.344Z,22.77
2018-07-04T11:50:56.136Z,23.32
2018-07-04T11:53:23.457Z,22.42
2018-07-04T11:55:50.593Z,22.74
2018-07-04T11:58:17.841Z,23.49
2018-07-04T12:00:45.281Z,24.00
2018-07-04T12:03:21.793Z,24.64
2018-07-04T12:06:01.566Z,23.40
2018-07-04T12:08:28.733Z,23.92
2018-07-04T12:10:56.516Z,24.25
2018-07-04T12:13:24.792Z,24.33
2018-07-04T12:15:52.366Z,24.71
2018-07-04T12:18:19.503Z,23.90
2018-07-04T12:20:46.884Z,24.43
2018-07-04T12:23:14.501Z,24.44
2018-07-04T12:25:42.613Z,23.99
2018-07-04T12:28:09.765Z,24.12
2018-07-04T12:30:36.945Z,24.86
2018-07-04T12:33:04.429Z,25.04
2018-07-04T12:35:31.651Z,24.44
2018-07-04T12:37:58.793Z,24.45
2018-07-04T12:40:25.940Z,24.41
2018-07-04T12:42:53.101Z,24.56
2018-07-04T12:45:20.248Z,25.00
2018-07-04T12:47:47.444Z,25.22
2018-07-04T12:50:30.653Z,24.69
2018-07-04T12:52:57.825Z,24.71
2018-07-04T12:55:38.697Z,25.06
2018-07-04T12:58:19.264Z,25.32
2018-07-04T13:00:58.677Z,24.57
2018-07-04T13:03:38.290Z,23.61
2018-07-04T13:06:17.879Z,23.06
2018-07-04T13:08:57.486Z,22.71
2018-07-04T13:11:38.180Z,23.11
2018-07-04T13:14:17.821Z,23.74
2018-07-04T13:16:57.375Z,23.65
2018-07-04T13:19:37.048Z,23.47
2018-07-04T13:22:17.579Z,23.31
2018-07-04T13:24:57.066Z,23.33
2018-07-04T13:27:36.584Z,24.06
2018-07-04T13:30:16.018Z,24.63
2018-07-04T13:32:55.541Z,24.18
2018-07-04T13:35:35.164Z,24.40
2018-07-04T13:38:14.662Z,23.99
2018-07-04T13:40:54.158Z,24.25
2018-07-04T13:43:34.028Z,24.58
2018-07-04T13:46:13.694Z,23.77
2018-07-04T13:48:53.377Z,24.16
2018-07-04T13:51:32.918Z,24.82
2018-07-04T13:54:12.437Z,26.85
2018-07-04T13:56:52.148Z,28.51
2018-07-04T13:59:31.932Z,29.81
2018-07-04T14:02:11.521Z,32.14
2018-07-04T14:04:51.133Z,35.24
2018-07-04T14:07:30.632Z,37.34
2018-07-04T14:10:10.118Z,39.21
2018-07-04T14:12:49.588Z,38.24
2018-07-04T14:15:29.308Z,35.92
2018-07-04T14:18:08.854Z,40.31
2018-07-04T14:20:48.401Z,41.59
2018-07-04T14:23:29.037Z,38.58
2018-07-04T14:26:08.535Z,35.21
2018-07-04T14:28:48.377Z,38.18
2018-07-04T14:31:27.957Z,40.83
2018-07-04T14:34:07.586Z,39.25
2018-07-04T14:36:47.238Z,39.96
2018-07-04T14:39:26.796Z,39.20
2018-07-04T14:42:06.333Z,37.66
2018-07-04T14:44:45.899Z,32.42
2018-07-04T14:47:25.473Z,33.90
2018-07-04T14:50:05.009Z,37.20
2018-07-04T14:52:44.500Z,40.10
2018-07-04T14:55:24.014Z,41.44
2018-07-04T14:58:03.685Z,37.80
2018-07-04T15:00:43.253Z,36.59
2018-07-04T15:03:22.917Z,35.67
2018-07-04T15:06:03.796Z,37.39
2018-07-04T15:08:43.430Z,38.39
2018-07-04T15:11:23.065Z,40.12
2018-07-04T15:14:02.689Z,35.37
2018-07-04T15:16:42.329Z,37.44
2018-07-04T15:19:21.905Z,41.58
2018-07-04T15:22:01.454Z,40.68
2018-07-04T15:24:41.017Z,39.16
2018-07-04T15:27:23.829Z,40.95
2018-07-04T15:30:03.542Z,36.00
2018-07-04T15:32:43.053Z,37.63
2018-07-04T15:35:22.665Z,37.46
2018-07-04T15:38:02.348Z,37.32
2018-07-04T15:40:42.105Z,39.16
2018-07-04T15:43:21.808Z,40.01
2018-07-04T15:46:01.325Z,35.42
2018-07-04T15:48:41.501Z,38.02
2018-07-04T15:51:21.739Z,38.56
2018-07-04T15:54:01.485Z,34.64
2018-07-04T15:56:41.081Z,35.62
2018-07-04T15:59:20.618Z,37.27
2018-07-04T16:02:00.254Z,39.86
2018-07-04T16:04:39.869Z,36.77
2018-07-04T16:07:19.553Z,36.82
2018-07-04T16:09:59.065Z,37.30
2018-07-04T16:12:38.686Z,36.72
2018-07-04T16:15:18.276Z,36.53
2018-07-04T16:17:57.745Z,35.37
2018-07-04T16:20:37.285Z,34.56
2018-07-04T16:23:16.960Z,36.22
2018-07-04T16:25:56.713Z,37.44
2018-07-04T16:28:36.282Z,37.01
2018-07-04T16:31:15.755Z,37.32
2018-07-04T16:33:55.312Z,38.70
2018-07-04T16:36:34.950Z,38.39
2018-07-04T16:39:14.616Z,38.76
2018-07-04T16:41:54.506Z,38.86
2018-07-04T16:44:34.414Z,39.37
2018-07-04T16:47:14.494Z,36.65
2018-07-04T16:49:54.279Z,35.94
2018-07-04T16:52:35.001Z,38.50
2018-07-04T16:55:14.573Z,36.96
2018-07-04T16:57:54.196Z,36.48
2018-07-04T17:00:33.757Z,34.48
2018-07-04T17:03:13.321Z,36.79
2018-07-04T17:05:52.852Z,34.19
2018-07-04T17:08:32.411Z,34.20
2018-07-04T17:11:12.137Z,33.39
2018-07-04T17:13:52.029Z,32.39
2018-07-04T17:16:31.681Z,34.94
2018-07-04T17:19:11.495Z,34.69
2018-07-04T17:21:50.909Z,32.75
2018-07-04T17:24:30.470Z,32.67
2018-07-04T17:27:09.985Z,33.51
2018-07-04T17:29:49.637Z,32.98
2018-07-04T17:32:29.152Z,34.53
2018-07-04T17:35:09.582Z,30.62
2018-07-04T17:37:49.249Z,33.15
2018-07-04T17:40:28.734Z,34.84
2018-07-04T17:43:08.260Z,31.85
2018-07-04T17:45:47.857Z,31.68
2018-07-04T17:48:27.250Z,29.42
2018-07-04T17:51:06.982Z,27.17
2018-07-04T17:53:47.505Z,25.70
2018-07-04T17:56:27.143Z,25.09
2018-07-04T17:59:06.820Z,24.80
2018-07-04T18:01:46.500Z,23.66
2018-07-04T18:04:26.385Z,23.40
2018-07-04T18:07:06.185Z,23.31
2018-07-04T18:09:47.318Z,22.96
2018-07-04T18:12:26.876Z,22.82
2018-07-04T18:15:06.433Z,22.66
2018-07-04T18:17:45.972Z,22.08
2018-07-04T18:20:25.504Z,22.15
2018-07-04T18:23:05.174Z,22.31
2018-07-04T18:25:44.922Z,22.23
2018-07-04T18:28:24.427Z,22.11
2018-07-04T18:31:04.015Z,22.25
2018-07-04T18:33:43.644Z,22.18
2018-07-04T18:36:23.368Z,21.70
2018-07-04T18:39:03.485Z,21.47
2018-07-04T18:41:43.240Z,21.56
2018-07-04T18:44:23.055Z,21.52
2018-07-04T18:47:02.686Z,21.23
2018-07-04T18:49:42.161Z,21.20
2018-07-04T18:52:21.808Z,21.12
2018-07-04T18:55:01.441Z,20.95
2018-07-04T18:57:40.980Z,20.96
2018-07-04T19:00:20.437Z,20.64
2018-07-04T19:03:00.090Z,20.60
2018-07-04T19:05:39.773Z,20.28
2018-07-04T19:08:19.357Z,20.38
2018-07-04T19:10:59.033Z,20.16
2018-07-04T19:13:38.740Z,19.95
2018-07-04T19:16:18.360Z,20.10
2018-07-04T19:18:58.026Z,20.15
2018-07-04T19:21:37.669Z,20.14
2018-07-04T19:24:17.297Z,20.19
2018-07-04T19:26:57.005Z,19.82
2018-07-04T19:29:37.449Z,19.71
2018-07-04T19:32:17.026Z,19.67
2018-07-04T19:34:56.584Z,19.72
2018-07-04T19:37:36.077Z,19.86
2018-07-04T19:40:15.725Z,19.74
2018-07-04T19:42:55.300Z,19.64
2018-07-04T19:45:34.833Z,19.48
2018-07-04T19:48:14.305Z,19.42
2018-07-04T19:50:53.938Z,19.22
2018-07-04T19:53:33.412Z,19.29
2018-07-04T19:56:12.938Z,19.32
2018-07-04T19:58:52.501Z,18.98
2018-07-04T20:01:32.209Z,18.69
2018-07-04T20:04:11.741Z,18.65
2018-07-04T20:06:51.285Z,18.51
2018-07-04T20:09:31.149Z,18.66
2018-07-04T20:12:10.881Z,18.51
2018-07-04T20:14:50.514Z,18.37
2018-07-04T20:17:30.030Z,18.32
2018-07-04T20:20:09.723Z,18.04
2018-07-04T20:22:49.338Z,18.00
2018-07-04T20:25:28.961Z,17.98
2018-07-04T20:28:08.592Z,17.76
2018-07-04T20:30:48.761Z,17.58
2018-07-04T20:33:28.286Z,17.57
2018-07-04T20:36:07.921Z,17.61
2018-07-04T20:38:47.443Z,17.66
2018-07-04T20:41:26.929Z,17.58
2018-07-04T20:44:06.431Z,17.47
2018-07-04T20:46:45.976Z,17.41
2018-07-04T20:49:25.551Z,17.34
2018-07-04T20:52:05.263Z,17.41
2018-07-04T20:54:44.993Z,17.34
2018-07-04T20:57:24.665Z,17.28
2018-07-04T21:00:04.262Z,17.28
2018-07-04T21:02:43.797Z,17.29
2018-07-04T21:05:23.366Z,17.14
2018-07-04T21:08:02.890Z,17.14
2018-07-04T21:10:42.530Z,17.06
2018-07-04T21:13:22.377Z,16.99
2018-07-04T21:16:01.828Z,17.14
2018-07-04T21:18:41.266Z,17.17
2018-07-04T21:21:20.929Z,17.02
2018-07-04T21:24:00.557Z,17.04
2018-07-04T21:26:40.218Z,17.19
2018-07-04T21:29:19.936Z,17.02
2018-07-04T21:31:59.622Z,17.06
2018-07-04T21:34:39.261Z,16.98
2018-07-04T21:37:18.862Z,16.94
2018-07-04T21:39:58.511Z,16.99
2018-07-04T21:42:38.160Z,17.09
2018-07-04T21:45:17.836Z,16.95
2018-07-04T21:47:57.579Z,16.85
2018-07-04T21:50:37.070Z,16.78
2018-07-04T21:53:16.485Z,16.77
2018-07-04T21:55:57.081Z,16.96
2018-07-04T21:58:36.651Z,16.74
2018-07-04T22:01:16.133Z,16.50
2018-07-04T22:03:55.677Z,16.60
2018-07-04T22:06:35.129Z,16.75
2018-07-04T22:09:14.648Z,16.64
2018-07-04T22:11:54.285Z,16.67
2018-07-04T22:14:33.706Z,16.82
2018-07-04T22:17:13.293Z,16.71
2018-07-04T22:19:53.746Z,16.60
2018-07-04T22:22:33.240Z,16.76
2018-07-04T22:25:12.822Z,16.84
2018-07-04T22:27:52.402Z,16.86
2018-07-04T22:30:31.885Z,16.86
2018-07-04T22:33:12.624Z,17.03
2018-07-04T22:35:52.319Z,17.05
2018-07-04T22:38:32.013Z,17.19
2018-07-04T22:41:13.394Z,17.18
2018-07-04T22:43:53.153Z,16.90
2018-07-04T22:46:32.904Z,16.94
2018-07-04T22:49:12.530Z,17.00
2018-07-04T22:54:43.340Z,17.10
2018-07-04T22:57:22.806Z,17.20
2018-07-04T23:00:03.090Z,17.38
2018-07-04T23:02:42.885Z,17.37
2018-07-04T23:05:22.445Z,17.38
2018-07-04T23:08:02.012Z,17.48
2018-07-04T23:10:41.569Z,17.42
2018-07-04T23:13:21.361Z,17.37
2018-07-04T23:16:01.102Z,17.34
2018-07-04T23:18:40.805Z,17.32
2018-07-04T23:21:20.476Z,17.49
2018-07-04T23:24:00.154Z,17.75
2018-07-04T23:26:39.777Z,17.35
2018-07-04T23:29:19.290Z,17.50
2018-07-04T23:31:58.869Z,17.73
2018-07-04T23:34:38.448Z,17.74
2018-07-04T23:37:17.988Z,17.90
2018-07-04T23:39:57.655Z,17.56
2018-07-04T23:42:37.389Z,17.44
2018-07-04T23:45:16.948Z,17.53
2018-07-04T23:47:56.573Z,17.63
2018-07-04T23:50:36.231Z,17.64
2018-07-04T23:53:15.767Z,17.51
2018-07-04T23:55:55.389Z,17.67
2018-07-04T23:58:35.770Z,17.79
